Time;durP1;ratioP1;P1;durP2;ratioP2;P2;SDS_P1;SDS_P2;PMS_P1;PMS_P2;Temp;Humidity;BMP_temperature;BMP_pressure;BME280_temperature;BME280_humidity;BME280_pressure;Samples;Min_cycle;Max_cycle;Signal;HPM_P1;HPM_P2
2021/04/13 00:02:46;;;;;;;39.53;25.93;;;;;;;;;;5029412;28;20471;-62
2021/04/13 00:05:14;;;;;;;50.43;26.90;;;;;;;;;;5068288;28;20470;-62
2021/04/13 00:07:44;;;;;;;45.80;26.90;;;;;;;;;;5071250;28;20448;-62
2021/04/13 00:10:12;;;;;;;42.17;26.60;;;;;;;;;;5073403;28;20830;-63
2021/04/13 00:12:39;;;;;;;40.50;24.57;;;;;;;;;;5076027;28;20525;-63
2021/04/13 00:15:08;;;;;;;42.37;26.47;;;;;;;;;;5075571;28;20451;-63
2021/04/13 00:17:36;;;;;;;44.57;26.60;;;;;;;;;;5075323;28;20475;-62
2021/04/13 00:20:07;;;;;;;45.23;26.40;;;;;;;;;;5075539;28;20458;-63
2021/04/13 00:22:34;;;;;;;41.93;25.57;;;;;;;;;;5075503;28;20455;-63
2021/04/13 00:25:01;;;;;;;43.73;27.40;;;;;;;;;;5075376;28;20451;-62
2021/04/13 00:27:28;;;;;;;39.27;26.03;;;;;;;;;;5074847;28;20500;-62
2021/04/13 00:30:04;;;;;;;43.80;26.53;;;;;;;;;;5075119;28;20455;-62
2021/04/13 00:32:33;;;;;;;41.57;23.87;;;;;;;;;;5075380;28;20446;-61
2021/04/13 00:35:14;;;;;;;49.40;25.33;;;;;;;;;;5075260;28;20834;-62
2021/04/13 00:37:40;;;;;;;43.27;25.23;;;;;;;;;;5074669;28;20489;-62
2021/04/13 00:40:24;;;;;;;42.20;24.00;;;;;;;;;;5074925;28;20451;-62
2021/04/13 00:42:52;;;;;;;38.27;24.37;;;;;;;;;;5074968;28;20467;-63
2021/04/13 00:45:21;;;;;;;37.87;23.77;;;;;;;;;;5075090;28;21045;-62
2021/04/13 00:47:49;;;;;;;37.97;23.73;;;;;;;;;;5074681;28;20439;-62
2021/04/13 00:50:23;;;;;;;37.77;23.53;;;;;;;;;;5074845;28;20446;-63
2021/04/13 00:52:51;;;;;;;38.07;24.23;;;;;;;;;;5074694;28;20930;-62
2021/04/13 00:55:20;;;;;;;38.97;25.50;;;;;;;;;;5074779;28;20458;-62
2021/04/13 00:57:47;;;;;;;41.97;25.27;;;;;;;;;;5074465;28;20487;-63
2021/04/13 01:00:18;;;;;;;38.20;24.17;;;;;;;;;;5074547;28;20847;-62
2021/04/13 01:02:44;;;;;;;39.87;24.73;;;;;;;;;;5074710;28;20452;-62
2021/04/13 01:05:15;;;;;;;43.73;24.53;;;;;;;;;;5074478;28;20811;-61
2021/04/13 01:07:44;;;;;;;39.10;24.03;;;;;;;;;;5074336;28;20478;-60
2021/04/13 01:10:13;;;;;;;37.43;23.33;;;;;;;;;;5074634;28;20451;-62
2021/04/13 01:12:41;;;;;;;38.33;23.43;;;;;;;;;;5074323;28;20451;-62
2021/04/13 01:15:09;;;;;;;37.67;24.40;;;;;;;;;;5074530;28;20444;-62
2021/04/13 01:17:36;;;;;;;40.30;24.10;;;;;;;;;;5073818;28;20569;-61
2021/04/13 01:20:06;;;;;;;41.43;23.90;;;;;;;;;;5074236;28;20443;-62
2021/04/13 01:22:39;;;;;;;42.17;24.83;;;;;;;;;;5073651;28;20458;-62
2021/04/13 01:25:08;;;;;;;39.80;25.83;;;;;;;;;;5074516;28;20450;-62
2021/04/13 01:27:35;;;;;;;39.20;23.73;;;;;;;;;;5074279;28;20443;-62
2021/04/13 01:30:05;;;;;;;40.50;25.03;;;;;;;;;;5073853;28;20455;-63
2021/04/13 01:32:32;;;;;;;41.73;26.33;;;;;;;;;;5074304;28;20451;-62
2021/04/13 01:35:03;;;;;;;43.17;24.53;;;;;;;;;;5073956;28;20458;-62
2021/04/13 01:37:42;;;;;;;40.53;25.03;;;;;;;;;;5073950;28;20850;-63
2021/04/13 01:40:19;;;;;;;37.80;23.40;;;;;;;;;;5073901;28;20823;-63
2021/04/13 01:42:47;;;;;;;40.13;25.30;;;;;;;;;;5073882;28;20459;-63
2021/04/13 01:45:15;;;;;;;40.43;24.47;;;;;;;;;;5073979;28;20454;-63
2021/04/13 01:47:42;;;;;;;39.90;24.23;;;;;;;;;;5073859;28;20444;-63
2021/04/13 01:50:09;;;;;;;40.50;23.80;;;;;;;;;;5074057;28;20809;-63
2021/04/13 01:52:38;;;;;;;37.70;23.53;;;;;;;;;;5073965;28;20788;-63
2021/04/13 01:55:07;;;;;;;42.53;25.67;;;;;;;;;;5073740;28;20445;-63
2021/04/13 01:57:40;;;;;;;42.73;23.70;;;;;;;;;;5074186;28;20483;-64
2021/04/13 02:00:10;;;;;;;38.83;23.73;;;;;;;;;;5074984;28;20432;-62
2021/04/13 02:02:39;;;;;;;40.27;22.63;;;;;;;;;;5074335;28;20931;-62
2021/04/13 02:05:09;;;;;;;39.80;23.43;;;;;;;;;;5073825;28;20470;-62
2021/04/13 02:07:44;;;;;;;40.73;23.90;;;;;;;;;;5073119;28;20965;-62
2021/04/13 02:10:20;;;;;;;37.17;23.33;;;;;;;;;;5073453;28;20447;-63
2021/04/13 02:12:47;;;;;;;36.33;22.77;;;;;;;;;;5073496;28;20859;-63
2021/04/13 02:15:20;;;;;;;39.07;23.13;;;;;;;;;;5073195;28;20447;-63
2021/04/13 02:17:48;;;;;;;41.97;24.17;;;;;;;;;;5073170;28;20999;-63
2021/04/13 02:20:16;;;;;;;40.07;23.67;;;;;;;;;;5073051;28;20436;-61
2021/04/13 02:22:44;;;;;;;42.50;24.70;;;;;;;;;;5073522;28;20455;-63
2021/04/13 02:25:11;;;;;;;36.63;23.43;;;;;;;;;;5073153;28;20558;-63
2021/04/13 02:27:40;;;;;;;41.60;24.43;;;;;;;;;;5072973;28;20500;-63
2021/04/13 02:30:09;;;;;;;38.40;24.93;;;;;;;;;;5073222;28;20451;-62
2021/04/13 02:32:36;;;;;;;42.37;25.73;;;;;;;;;;5072430;28;20495;-62
2021/04/13 02:35:03;;;;;;;48.70;26.80;;;;;;;;;;5072530;28;20811;-62
2021/04/13 02:37:33;;;;;;;48.73;25.40;;;;;;;;;;5072868;28;20506;-63
2021/04/13 02:40:06;;;;;;;45.20;26.47;;;;;;;;;;5073096;28;20484;-63
2021/04/13 02:42:37;;;;;;;44.10;26.43;;;;;;;;;;5072375;28;20837;-63
2021/04/13 02:45:05;;;;;;;42.20;25.30;;;;;;;;;;5073045;28;20475;-63
2021/04/13 02:47:34;;;;;;;46.50;25.70;;;;;;;;;;5073011;28;20428;-62
2021/04/13 02:50:05;;;;;;;45.93;26.90;;;;;;;;;;5072566;28;20450;-62
2021/04/13 02:52:33;;;;;;;47.03;27.70;;;;;;;;;;5072813;28;20496;-61
2021/04/13 02:55:01;;;;;;;43.20;25.57;;;;;;;;;;5072333;28;20447;-63
2021/04/13 02:57:29;;;;;;;42.60;26.53;;;;;;;;;;5072153;28;20923;-63
2021/04/13 02:59:58;;;;;;;49.37;25.07;;;;;;;;;;5072575;28;20454;-63
2021/04/13 03:02:27;;;;;;;44.23;26.10;;;;;;;;;;5072711;28;20442;-62
2021/04/13 03:04:55;;;;;;;40.83;24.73;;;;;;;;;;5072440;28;20839;-63
2021/04/13 03:07:23;;;;;;;40.43;23.90;;;;;;;;;;5072283;28;20443;-62
2021/04/13 03:09:50;;;;;;;44.87;26.77;;;;;;;;;;5072460;28;20497;-62
2021/04/13 03:12:17;;;;;;;42.20;25.30;;;;;;;;;;5072142;28;20537;-63
2021/04/13 03:14:46;;;;;;;45.70;26.83;;;;;;;;;;5072313;28;20471;-63
2021/04/13 03:17:16;;;;;;;46.67;24.40;;;;;;;;;;5071837;28;20491;-63
2021/04/13 03:19:43;;;;;;;47.00;23.07;;;;;;;;;;5072377;28;20936;-62
2021/04/13 03:22:11;;;;;;;44.77;26.60;;;;;;;;;;5072569;28;20451;-61
2021/04/13 03:24:40;;;;;;;43.73;26.27;;;;;;;;;;5071752;28;20462;-61
2021/04/13 03:27:09;;;;;;;43.63;25.60;;;;;;;;;;5072145;28;20451;-61
2021/04/13 03:29:41;;;;;;;41.03;26.23;;;;;;;;;;5071982;28;20455;-63
2021/04/13 03:32:08;;;;;;;47.63;27.20;;;;;;;;;;5072060;28;20824;-63
2021/04/13 03:34:35;;;;;;;43.13;27.10;;;;;;;;;;5071870;28;20463;-59
2021/04/13 03:37:02;;;;;;;46.60;26.70;;;;;;;;;;5071702;28;20480;-62
2021/04/13 03:39:31;;;;;;;49.37;27.13;;;;;;;;;;5071642;28;20949;-62
2021/04/13 03:41:58;;;;;;;49.43;28.30;;;;;;;;;;5071813;28;20456;-61
2021/04/13 03:44:25;;;;;;;41.97;26.90;;;;;;;;;;5071620;28;20474;-62
2021/04/13 03:46:52;;;;;;;49.93;27.53;;;;;;;;;;5071414;28;20443;-63
2021/04/13 03:49:20;;;;;;;43.43;26.70;;;;;;;;;;5071796;28;20868;-61
2021/04/13 03:51:48;;;;;;;46.87;27.30;;;;;;;;;;5071545;28;20460;-63
2021/04/13 03:54:19;;;;;;;39.67;25.63;;;;;;;;;;5071703;28;20468;-63
2021/04/13 03:56:48;;;;;;;39.40;24.40;;;;;;;;;;5071602;28;20528;-62
2021/04/13 03:59:17;;;;;;;43.60;24.67;;;;;;;;;;5071609;28;20955;-62
2021/04/13 04:01:46;;;;;;;42.47;26.37;;;;;;;;;;5071916;28;20451;-61
2021/04/13 04:04:20;;;;;;;40.33;25.33;;;;;;;;;;5071410;28;20501;-62
2021/04/13 04:06:51;;;;;;;39.87;24.17;;;;;;;;;;5071593;28;20874;-62
2021/04/13 04:09:18;;;;;;;39.87;22.93;;;;;;;;;;5071662;28;20475;-61
2021/04/13 04:11:45;;;;;;;36.87;21.67;;;;;;;;;;5071672;28;20454;-62
2021/04/13 04:14:18;;;;;;;41.57;23.47;;;;;;;;;;5071399;28;20475;-62
2021/04/13 04:16:45;;;;;;;42.90;23.17;;;;;;;;;;5061053;28;20484;-62
2021/04/13 04:19:12;;;;;;;38.53;23.43;;;;;;;;;;5051614;28;20452;-62
2021/04/13 04:21:40;;;;;;;36.77;22.43;;;;;;;;;;5051621;28;20503;-62
2021/04/13 04:24:08;;;;;;;35.87;22.83;;;;;;;;;;5051456;28;20473;-62
2021/04/13 04:26:40;;;;;;;38.17;23.37;;;;;;;;;;5050199;28;20462;-61
2021/04/13 04:29:14;;;;;;;38.43;24.20;;;;;;;;;;5069364;28;20455;-62
2021/04/13 04:31:42;;;;;;;34.00;22.87;;;;;;;;;;5071020;28;20450;-62
2021/04/13 04:34:27;;;;;;;33.90;22.77;;;;;;;;;;5071211;28;20475;-63
2021/04/13 04:36:54;;;;;;;36.03;22.10;;;;;;;;;;5071291;28;20999;-61
2021/04/13 04:39:22;;;;;;;36.47;23.10;;;;;;;;;;5071206;28;20473;-62
2021/04/13 04:41:48;;;;;;;35.27;23.43;;;;;;;;;;5070710;28;20882;-62
2021/04/13 04:44:20;;;;;;;34.77;21.97;;;;;;;;;;5071006;28;20999;-62
2021/04/13 04:46:48;;;;;;;41.17;23.83;;;;;;;;;;5071094;28;20581;-62
2021/04/13 04:49:15;;;;;;;35.93;23.17;;;;;;;;;;5051496;28;20453;-62
2021/04/13 04:51:42;;;;;;;34.33;23.40;;;;;;;;;;5051058;28;20837;-62
2021/04/13 04:54:09;;;;;;;38.17;22.77;;;;;;;;;;5050707;28;20468;-62
2021/04/13 04:56:35;;;;;;;34.07;23.57;;;;;;;;;;5051585;28;20444;-62
2021/04/13 04:59:02;;;;;;;37.73;23.87;;;;;;;;;;5054436;28;20498;-62
2021/04/13 05:01:29;;;;;;;37.67;23.93;;;;;;;;;;5054746;28;20456;-62
2021/04/13 05:03:57;;;;;;;38.93;23.40;;;;;;;;;;5054641;28;20475;-62
2021/04/13 05:06:24;;;;;;;44.30;24.90;;;;;;;;;;5054336;28;20444;-62
2021/04/13 05:08:51;;;;;;;36.67;24.60;;;;;;;;;;5054178;28;20522;-62
2021/04/13 05:11:17;;;;;;;37.77;24.00;;;;;;;;;;5054542;28;20459;-62
2021/04/13 05:13:44;;;;;;;34.67;23.27;;;;;;;;;;5054610;28;20479;-62
2021/04/13 05:16:11;;;;;;;36.80;23.30;;;;;;;;;;5054333;28;20456;-64
2021/04/13 05:18:37;;;;;;;34.70;23.80;;;;;;;;;;5060837;28;20480;-64
2021/04/13 05:21:05;;;;;;;33.90;23.27;;;;;;;;;;5065117;28;20459;-67
2021/04/13 05:23:32;;;;;;;33.87;22.70;;;;;;;;;;5074494;28;20494;-64
2021/04/13 05:25:58;;;;;;;35.53;22.33;;;;;;;;;;5075004;28;20481;-62
2021/04/13 05:28:25;;;;;;;37.03;23.50;;;;;;;;;;5075657;28;20443;-63
2021/04/13 05:30:52;;;;;;;36.33;24.23;;;;;;;;;;5061531;28;20452;-65
2021/04/13 05:33:18;;;;;;;40.53;24.27;;;;;;;;;;5053277;28;20495;-63
2021/04/13 05:35:45;;;;;;;37.80;23.63;;;;;;;;;;5053445;28;20448;-63
2021/04/13 05:38:15;;;;;;;37.47;23.67;;;;;;;;;;5053282;28;20487;-62
2021/04/13 05:40:42;;;;;;;33.00;21.73;;;;;;;;;;5052904;28;20468;-62
2021/04/13 05:43:10;;;;;;;34.27;21.53;;;;;;;;;;5053353;28;20472;-64
2021/04/13 05:45:38;;;;;;;29.97;21.20;;;;;;;;;;5053440;28;20444;-64
2021/04/13 05:48:05;;;;;;;31.70;19.63;;;;;;;;;;5053141;28;20510;-62
2021/04/13 05:50:33;;;;;;;28.33;19.40;;;;;;;;;;5053176;28;20871;-60
2021/04/13 05:52:59;;;;;;;30.37;20.13;;;;;;;;;;5056368;28;20484;-63
2021/04/13 05:55:30;;;;;;;26.73;19.47;;;;;;;;;;5058211;28;20474;-65
2021/04/13 05:57:58;;;;;;;33.10;20.40;;;;;;;;;;5053700;28;20988;-63
2021/04/13 06:00:26;;;;;;;32.97;20.57;;;;;;;;;;5056904;28;20459;-65
2021/04/13 06:02:54;;;;;;;27.47;19.37;;;;;;;;;;5061453;28;20514;-65
2021/04/13 06:05:21;;;;;;;28.70;20.27;;;;;;;;;;5058187;28;20465;-64
2021/04/13 06:07:48;;;;;;;28.20;18.87;;;;;;;;;;5053283;28;20482;-69
2021/04/13 06:10:15;;;;;;;29.53;19.90;;;;;;;;;;5051809;28;20448;-62
2021/04/13 06:12:42;;;;;;;32.63;18.50;;;;;;;;;;5051758;28;20464;-63
2021/04/13 06:15:12;;;;;;;27.50;18.07;;;;;;;;;;5051796;28;20459;-64
2021/04/13 06:17:39;;;;;;;32.53;19.20;;;;;;;;;;5050641;28;20486;-61
2021/04/13 06:20:06;;;;;;;28.77;18.13;;;;;;;;;;5052223;28;20456;-63
2021/04/13 06:22:33;;;;;;;27.93;17.87;;;;;;;;;;5051432;28;20458;-63
2021/04/13 06:25:00;;;;;;;29.07;17.57;;;;;;;;;;5052028;28;20486;-64
2021/04/13 06:27:26;;;;;;;30.63;17.40;;;;;;;;;;5051143;28;21265;-65
2021/04/13 06:29:53;;;;;;;28.23;18.40;;;;;;;;;;5051900;28;20466;-66
2021/04/13 06:32:21;;;;;;;29.47;18.17;;;;;;;;;;5051017;28;20958;-68
2021/04/13 06:34:48;;;;;;;20.53;14.93;;;;;;;;;;5051547;28;20515;-68
2021/04/13 06:37:14;;;;;;;21.93;15.37;;;;;;;;;;5051177;28;20893;-66
2021/04/13 06:39:41;;;;;;;24.97;15.37;;;;;;;;;;5051428;28;20455;-66
2021/04/13 06:42:13;;;;;;;22.73;14.80;;;;;;;;;;5051138;28;20466;-65
2021/04/13 06:44:53;;;;;;;25.03;15.70;;;;;;;;;;5050945;28;20542;-64
2021/04/13 06:47:24;;;;;;;28.67;15.80;;;;;;;;;;5051829;28;20443;-64
2021/04/13 06:50:04;;;;;;;24.40;15.27;;;;;;;;;;5051956;28;20451;-63
2021/04/13 06:52:39;;;;;;;26.60;15.67;;;;;;;;;;5051811;28;20490;-67
2021/04/13 06:55:09;;;;;;;24.57;15.07;;;;;;;;;;5051936;28;20449;-64
2021/04/13 06:57:42;;;;;;;25.67;16.10;;;;;;;;;;5051471;28;21072;-65
2021/04/13 07:00:24;;;;;;;20.83;13.37;;;;;;;;;;5051694;28;20448;-69
2021/04/13 07:02:56;;;;;;;21.63;13.93;;;;;;;;;;5066115;28;20450;-67
2021/04/13 07:05:24;;;;;;;22.77;13.90;;;;;;;;;;5074586;28;20446;-69
2021/04/13 07:07:53;;;;;;;22.63;13.20;;;;;;;;;;5071804;28;20530;-68
2021/04/13 07:10:21;;;;;;;19.83;12.90;;;;;;;;;;5071632;28;20530;-66
2021/04/13 07:12:53;;;;;;;23.07;13.03;;;;;;;;;;5071432;28;20461;-62
2021/04/13 07:15:23;;;;;;;18.40;11.60;;;;;;;;;;5072339;28;20427;-63
2021/04/13 07:17:52;;;;;;;20.20;12.23;;;;;;;;;;5063315;28;20476;-64
2021/04/13 07:20:20;;;;;;;23.47;12.93;;;;;;;;;;5050419;28;20832;-63
2021/04/13 07:22:51;;;;;;;23.33;14.20;;;;;;;;;;5051201;28;20497;-64
2021/04/13 07:25:20;;;;;;;20.00;12.80;;;;;;;;;;5050493;28;20824;-64
2021/04/13 07:27:48;;;;;;;23.07;12.67;;;;;;;;;;5050431;28;20484;-66
2021/04/13 07:30:18;;;;;;;23.00;11.90;;;;;;;;;;5050696;28;20452;-67
2021/04/13 07:32:44;;;;;;;24.27;10.57;;;;;;;;;;5049936;28;20460;-63
2021/04/13 07:35:12;;;;;;;19.57;10.77;;;;;;;;;;5050576;28;20447;-65
2021/04/13 07:37:41;;;;;;;23.90;10.27;;;;;;;;;;5050266;28;20476;-64
2021/04/13 07:40:12;;;;;;;14.73;9.53;;;;;;;;;;5050679;28;20949;-67
2021/04/13 07:42:40;;;;;;;22.77;10.07;;;;;;;;;;5052311;28;20441;-67
2021/04/13 07:45:16;;;;;;;19.77;8.57;;;;;;;;;;5051113;28;20448;-66
2021/04/13 07:47:57;;;;;;;17.00;6.80;;;;;;;;;;5051266;28;20451;-66
2021/04/13 07:50:26;;;;;;;14.17;7.13;;;;;;;;;;5028445;28;20816;-62
2021/04/13 07:52:58;;;;;;;18.57;6.97;;;;;;;;;;5051073;28;21004;-63
2021/04/13 07:55:27;;;;;;;19.13;7.67;;;;;;;;;;5050782;28;20521;-64
2021/04/13 07:57:59;;;;;;;14.13;6.67;;;;;;;;;;5050564;28;20494;-62
2021/04/13 08:00:26;;;;;;;13.80;6.33;;;;;;;;;;5050535;28;20449;-61
2021/04/13 08:02:56;;;;;;;17.37;6.67;;;;;;;;;;5050141;28;20316;-61
2021/04/13 08:05:36;;;;;;;12.77;5.33;;;;;;;;;;5050227;28;20217;-62
2021/04/13 08:08:05;;;;;;;14.00;6.20;;;;;;;;;;5049638;28;20454;-62
2021/04/13 08:10:35;;;;;;;15.83;6.13;;;;;;;;;;5050248;28;20209;-65
2021/04/13 08:13:05;;;;;;;13.77;5.97;;;;;;;;;;5050256;28;20595;-64
2021/04/13 08:15:43;;;;;;;14.93;6.40;;;;;;;;;;5050127;28;20205;-64
2021/04/13 08:18:11;;;;;;;17.10;6.30;;;;;;;;;;5049628;28;20480;-63
2021/04/13 08:20:39;;;;;;;13.60;4.80;;;;;;;;;;5050205;28;20690;-65
2021/04/13 08:23:07;;;;;;;14.87;5.70;;;;;;;;;;5050763;28;20655;-65
2021/04/13 08:25:37;;;;;;;12.77;5.03;;;;;;;;;;5050954;28;20305;-66
2021/04/13 08:28:06;;;;;;;13.67;5.57;;;;;;;;;;5050674;28;20197;-67
2021/04/13 08:30:44;;;;;;;10.87;3.53;;;;;;;;;;5049797;28;20447;-66
2021/04/13 08:33:17;;;;;;;14.37;4.80;;;;;;;;;;5053775;28;20244;-66
2021/04/13 08:36:00;;;;;;;16.17;5.07;;;;;;;;;;5053946;28;20264;-66
2021/04/13 08:38:43;;;;;;;13.77;4.40;;;;;;;;;;5053756;28;20264;-63
2021/04/13 08:41:15;;;;;;;9.43;3.93;;;;;;;;;;5053320;28;20215;-60
2021/04/13 08:43:51;;;;;;;15.87;3.70;;;;;;;;;;5053768;28;20706;-66
2021/04/13 08:46:22;;;;;;;17.53;4.07;;;;;;;;;;5053702;28;20213;-65
2021/04/13 08:48:52;;;;;;;9.47;3.63;;;;;;;;;;5053383;28;20218;-65
2021/04/13 08:51:20;;;;;;;13.30;3.47;;;;;;;;;;5053371;28;20248;-65
2021/04/13 08:53:49;;;;;;;9.80;2.80;;;;;;;;;;5053062;28;20219;-65
2021/04/13 08:56:21;;;;;;;13.53;2.53;;;;;;;;;;5054217;28;20206;-65
2021/04/13 08:58:49;;;;;;;12.77;2.93;;;;;;;;;;5054137;28;20221;-65
2021/04/13 09:01:25;;;;;;;12.27;2.73;;;;;;;;;;5053929;28;20579;-67
2021/04/13 09:03:51;;;;;;;9.03;2.90;;;;;;;;;;5054775;28;20226;-67
2021/04/13 09:06:22;;;;;;;5.43;2.40;;;;;;;;;;5054235;28;20580;-63
2021/04/13 09:08:52;;;;;;;8.37;2.47;;;;;;;;;;5054958;28;20210;-62
2021/04/13 09:11:28;;;;;;;10.30;2.20;;;;;;;;;;5053038;28;20217;-66
2021/04/13 09:14:02;;;;;;;9.57;2.40;;;;;;;;;;5054072;28;20742;-62
2021/04/13 09:16:28;;;;;;;8.67;2.17;;;;;;;;;;5053452;28;20210;-64
2021/04/13 09:18:56;;;;;;;10.23;3.00;;;;;;;;;;5053213;28;20703;-67
2021/04/13 09:21:33;;;;;;;10.17;2.63;;;;;;;;;;5053275;28;20217;-66
2021/04/13 09:24:04;;;;;;;14.20;3.03;;;;;;;;;;5052959;28;20232;-65
2021/04/13 09:26:34;;;;;;;7.33;2.50;;;;;;;;;;5052997;28;20281;-65
2021/04/13 09:29:01;;;;;;;7.40;2.50;;;;;;;;;;5053270;28;20211;-65
2021/04/13 09:31:32;;;;;;;9.13;2.33;;;;;;;;;;5052357;28;20216;-65
2021/04/13 09:34:11;;;;;;;7.70;2.37;;;;;;;;;;5052678;28;20236;-65
2021/04/13 09:36:52;;;;;;;11.60;2.90;;;;;;;;;;5052449;28;20228;-66
2021/04/13 09:39:37;;;;;;;6.93;2.30;;;;;;;;;;5043911;28;20224;-66
2021/04/13 09:42:12;;;;;;;10.73;2.67;;;;;;;;;;5051687;28;20225;-65
2021/04/13 09:45:03;;;;;;;9.63;2.40;;;;;;;;;;5052577;28;20721;-65
2021/04/13 09:47:55;;;;;;;8.63;2.03;;;;;;;;;;5052681;28;20247;-67
2021/04/13 09:50:27;;;;;;;7.57;2.37;;;;;;;;;;5052339;28;20213;-63
2021/04/13 09:53:09;;;;;;;5.00;1.87;;;;;;;;;;5052334;28;20239;-65
2021/04/13 09:55:42;;;;;;;5.60;2.10;;;;;;;;;;5052326;28;20209;-65
2021/04/13 09:58:16;;;;;;;6.03;1.43;;;;;;;;;;5051869;28;20226;-67
2021/04/13 10:00:52;;;;;;;12.37;2.13;;;;;;;;;;5055303;28;20208;-68
2021/04/13 10:03:34;;;;;;;7.63;1.83;;;;;;;;;;5056538;28;20232;-68
2021/04/13 10:06:01;;;;;;;11.10;3.10;;;;;;;;;;5056339;28;20201;-65
2021/04/13 10:08:31;;;;;;;6.17;1.90;;;;;;;;;;5075272;28;20206;-69
2021/04/13 10:11:05;;;;;;;11.20;2.27;;;;;;;;;;5085302;28;20207;-67
2021/04/13 10:13:53;;;;;;;12.23;2.33;;;;;;;;;;5074581;28;20309;-69
2021/04/13 10:16:24;;;;;;;10.60;2.20;;;;;;;;;;5073725;28;20203;-64
2021/04/13 10:19:09;;;;;;;7.37;2.30;;;;;;;;;;5072762;28;20570;-69
2021/04/13 10:22:00;;;;;;;11.00;2.90;;;;;;;;;;5071812;28;20739;-69
2021/04/13 10:24:39;;;;;;;9.87;1.80;;;;;;;;;;5072010;28;20233;-67
2021/04/13 10:27:24;;;;;;;8.37;2.10;;;;;;;;;;5071709;28;20795;-65
2021/04/13 10:30:03;;;;;;;6.13;1.83;;;;;;;;;;5071391;28;20295;-66
2021/04/13 10:33:02;;;;;;;6.93;2.20;;;;;;;;;;5071702;28;20726;-66
2021/04/13 10:36:02;;;;;;;8.30;2.00;;;;;;;;;;5029493;28;20210;-66
2021/04/13 10:38:46;;;;;;;6.97;2.03;;;;;;;;;;5030038;28;20321;-65
2021/04/13 10:41:34;;;;;;;11.57;2.73;;;;;;;;;;5063278;28;20217;-64
2021/04/13 10:44:21;;;;;;;9.70;1.87;;;;;;;;;;5072329;28;20223;-64
2021/04/13 10:46:51;;;;;;;7.47;1.70;;;;;;;;;;5072031;28;20212;-61
2021/04/13 10:49:36;;;;;;;7.33;1.57;;;;;;;;;;5072083;28;20670;-64
2021/04/13 10:52:20;;;;;;;6.67;1.57;;;;;;;;;;5071736;28;20205;-63
2021/04/13 10:55:03;;;;;;;7.77;1.90;;;;;;;;;;5070423;28;20225;-66
2021/04/13 10:57:57;;;;;;;5.83;1.80;;;;;;;;;;5070785;28;20220;-64
2021/04/13 11:00:28;;;;;;;4.93;1.57;;;;;;;;;;5071289;28;20266;-63
2021/04/13 11:02:59;;;;;;;8.03;1.50;;;;;;;;;;5071075;28;20225;-63
2021/04/13 11:05:39;;;;;;;4.07;1.07;;;;;;;;;;5070971;28;20213;-67
2021/04/13 11:08:24;;;;;;;4.40;1.33;;;;;;;;;;5071278;28;20662;-67
2021/04/13 11:11:04;;;;;;;4.20;1.30;;;;;;;;;;5071105;28;20216;-65
2021/04/13 11:13:47;;;;;;;4.50;1.43;;;;;;;;;;5056847;28;20233;-65
2021/04/13 11:16:35;;;;;;;5.93;1.60;;;;;;;;;;5050935;28;20233;-64
2021/04/13 11:19:18;;;;;;;4.53;1.90;;;;;;;;;;5051158;28;20233;-64
2021/04/13 11:22:05;;;;;;;5.57;1.50;;;;;;;;;;5059458;28;20572;-66
2021/04/13 11:24:49;;;;;;;3.17;1.40;;;;;;;;;;5071806;28;20229;-68
2021/04/13 11:27:37;;;;;;;3.57;1.13;;;;;;;;;;5071194;28;20205;-69
2021/04/13 11:30:22;;;;;;;4.43;1.60;;;;;;;;;;5070597;28;20205;-67
2021/04/13 11:33:05;;;;;;;6.53;1.63;;;;;;;;;;5070790;28;20273;-65
2021/04/13 11:35:36;;;;;;;6.20;1.60;;;;;;;;;;5071888;28;20692;-66
2021/04/13 11:38:18;;;;;;;7.37;1.70;;;;;;;;;;5071052;28;20229;-66
2021/04/13 11:40:53;;;;;;;5.10;1.80;;;;;;;;;;5070733;28;20239;-66
2021/04/13 11:43:22;;;;;;;7.17;1.70;;;;;;;;;;5070980;28;20289;-65
2021/04/13 11:45:53;;;;;;;7.60;1.47;;;;;;;;;;5070626;28;20224;-68
2021/04/13 11:48:25;;;;;;;4.63;1.30;;;;;;;;;;5072270;28;20205;-67
2021/04/13 11:50:56;;;;;;;3.33;1.90;;;;;;;;;;5075143;28;20233;-66
2021/04/13 11:53:34;;;;;;;3.97;1.43;;;;;;;;;;5075431;28;20601;-65
2021/04/13 11:56:01;;;;;;;5.20;1.57;;;;;;;;;;5070718;28;20300;-65
2021/04/13 11:58:31;;;;;;;5.83;1.50;;;;;;;;;;5070593;28;20252;-65
2021/04/13 12:01:22;;;;;;;3.23;1.43;;;;;;;;;;5070145;28;20233;-65
2021/04/13 12:03:59;;;;;;;2.10;1.10;;;;;;;;;;5060557;28;20297;-68
2021/04/13 12:06:40;;;;;;;1.97;1.00;;;;;;;;;;5052630;28;20689;-67
2021/04/13 12:09:07;;;;;;;3.17;1.30;;;;;;;;;;5054013;28;20202;-66
2021/04/13 12:11:44;;;;;;;4.93;1.40;;;;;;;;;;5054056;28;20618;-67
2021/04/13 12:14:31;;;;;;;3.63;1.27;;;;;;;;;;5054071;28;20225;-67
2021/04/13 12:17:01;;;;;;;7.07;1.63;;;;;;;;;;5054200;28;20205;-67
2021/04/13 12:19:29;;;;;;;4.33;1.33;;;;;;;;;;5054311;28;20238;-67
2021/04/13 12:22:29;;;;;;;6.47;1.63;;;;;;;;;;5054796;28;20255;-67
2021/04/13 12:24:55;;;;;;;5.00;2.20;;;;;;;;;;4993080;28;20223;-67
2021/04/13 12:27:40;;;;;;;3.90;1.77;;;;;;;;;;4992685;28;20218;-68
2021/04/13 12:30:25;;;;;;;4.87;1.73;;;;;;;;;;5028449;28;20278;-64
2021/04/13 12:32:52;;;;;;;4.33;1.63;;;;;;;;;;5054362;28;20710;-63
2021/04/13 12:35:33;;;;;;;3.23;1.63;;;;;;;;;;5054219;28;20252;-64
2021/04/13 12:38:01;;;;;;;4.13;1.60;;;;;;;;;;5053504;28;20232;-65
2021/04/13 12:40:30;;;;;;;4.20;1.47;;;;;;;;;;5053674;28;20245;-64
2021/04/13 12:42:57;;;;;;;6.60;1.80;;;;;;;;;;5053525;28;20756;-64
2021/04/13 12:45:31;;;;;;;5.03;1.40;;;;;;;;;;5054200;28;20213;-66
2021/04/13 12:48:00;;;;;;;3.87;1.10;;;;;;;;;;5054118;28;20209;-66
2021/04/13 12:50:29;;;;;;;3.07;1.20;;;;;;;;;;5053716;28;20626;-66
2021/04/13 12:52:56;;;;;;;2.37;1.30;;;;;;;;;;5053954;28;20775;-65
2021/04/13 12:55:24;;;;;;;4.07;1.40;;;;;;;;;;5054314;28;20201;-65
2021/04/13 12:57:51;;;;;;;2.77;1.17;;;;;;;;;;5054303;28;20232;-64
2021/04/13 13:00:18;;;;;;;5.27;1.30;;;;;;;;;;5054989;28;20206;-64
2021/04/13 13:02:47;;;;;;;1.70;1.13;;;;;;;;;;5054302;28;20208;-65
2021/04/13 13:05:24;;;;;;;3.43;1.20;;;;;;;;;;5054323;28;20202;-67
2021/04/13 13:07:55;;;;;;;2.13;1.10;;;;;;;;;;5053430;28;20235;-67
2021/04/13 13:10:27;;;;;;;2.63;1.57;;;;;;;;;;5053600;28;20205;-67
2021/04/13 13:12:53;;;;;;;2.20;1.20;;;;;;;;;;5054535;28;20205;-66
2021/04/13 13:15:20;;;;;;;3.17;1.10;;;;;;;;;;5053349;28;20206;-68
2021/04/13 13:17:50;;;;;;;2.73;1.00;;;;;;;;;;5052207;28;20275;-68
2021/04/13 13:20:18;;;;;;;5.03;1.30;;;;;;;;;;5052817;28;20681;-68
2021/04/13 13:22:48;;;;;;;2.30;1.20;;;;;;;;;;5052318;28;20205;-67
2021/04/13 13:25:17;;;;;;;6.10;1.20;;;;;;;;;;5054916;28;20205;-65
2021/04/13 13:27:44;;;;;;;4.70;1.40;;;;;;;;;;5073766;28;20197;-64
2021/04/13 13:30:13;;;;;;;6.37;2.00;;;;;;;;;;5073784;28;20260;-65
2021/04/13 13:32:40;;;;;;;5.17;1.50;;;;;;;;;;5072946;28;20217;-65
2021/04/13 13:35:08;;;;;;;3.63;1.30;;;;;;;;;;5073618;28;20246;-65
2021/04/13 13:37:37;;;;;;;2.93;1.40;;;;;;;;;;5073116;28;20207;-65
2021/04/13 13:40:05;;;;;;;2.97;1.30;;;;;;;;;;5073996;28;20326;-65
2021/04/13 13:42:32;;;;;;;5.93;1.50;;;;;;;;;;5073414;28;20219;-65
2021/04/13 13:44:59;;;;;;;3.43;1.40;;;;;;;;;;5073784;28;20240;-65
2021/04/13 13:47:33;;;;;;;5.73;1.30;;;;;;;;;;5073766;28;20285;-66
2021/04/13 13:50:01;;;;;;;3.00;1.40;;;;;;;;;;5073611;28;20253;-65
2021/04/13 13:52:35;;;;;;;2.93;1.30;;;;;;;;;;5073327;28;20203;-65
2021/04/13 13:55:06;;;;;;;4.37;1.10;;;;;;;;;;5073149;28;20205;-65
2021/04/13 13:57:33;;;;;;;4.33;1.40;;;;;;;;;;5073174;28;20205;-65
2021/04/13 14:00:00;;;;;;;2.37;1.00;;;;;;;;;;5073508;28;20208;-65
2021/04/13 14:02:29;;;;;;;1.97;1.10;;;;;;;;;;5072505;28;20709;-65
2021/04/13 14:05:08;;;;;;;6.07;1.20;;;;;;;;;;5073259;28;20229;-65
2021/04/13 14:07:35;;;;;;;3.67;1.27;;;;;;;;;;5074339;28;20248;-64
2021/04/13 14:10:09;;;;;;;4.90;1.30;;;;;;;;;;5074533;28;20258;-65
2021/04/13 14:12:36;;;;;;;2.90;1.20;;;;;;;;;;5073706;28;20638;-65
2021/04/13 14:15:12;;;;;;;2.63;1.30;;;;;;;;;;5077835;28;20699;-65
2021/04/13 14:17:40;;;;;;;5.40;1.57;;;;;;;;;;5077759;28;20215;-65
2021/04/13 14:20:08;;;;;;;5.80;1.30;;;;;;;;;;5073764;28;20206;-65
2021/04/13 14:22:34;;;;;;;2.93;1.20;;;;;;;;;;5078570;28;20219;-65
2021/04/13 14:25:06;;;;;;;1.30;0.87;;;;;;;;;;5081430;28;20209;-65
2021/04/13 14:27:33;;;;;;;6.67;1.30;;;;;;;;;;5080451;28;20685;-65
2021/04/13 14:30:01;;;;;;;4.63;1.37;;;;;;;;;;5074498;28;20590;-64
2021/04/13 14:32:29;;;;;;;7.90;1.10;;;;;;;;;;5072044;28;20270;-65
2021/04/13 14:34:57;;;;;;;5.87;1.00;;;;;;;;;;5072431;28;20224;-64
2021/04/13 14:37:26;;;;;;;5.93;1.30;;;;;;;;;;5072540;28;20212;-65
2021/04/13 14:39:54;;;;;;;3.73;1.20;;;;;;;;;;5072796;28;20220;-65
2021/04/13 14:42:22;;;;;;;3.37;0.97;;;;;;;;;;5071798;28;20277;-65
2021/04/13 14:44:50;;;;;;;2.53;0.93;;;;;;;;;;5072902;28;20221;-65
2021/04/13 14:47:19;;;;;;;1.83;0.80;;;;;;;;;;5072293;28;20349;-66
2021/04/13 14:49:46;;;;;;;4.00;1.17;;;;;;;;;;5072215;28;20261;-66
2021/04/13 14:52:13;;;;;;;5.53;1.27;;;;;;;;;;5071915;28;20204;-66
2021/04/13 14:54:40;;;;;;;2.50;1.00;;;;;;;;;;5073028;28;20601;-66